sensor_id;sensor_type;location;lat;lon;timestamp;P1;durP1;ratioP1;P2;durP2;ratioP2
25962;SDS011;13760;52.588;13.406;2022-08-19T00:01:21;17.58;;;14.60;;
25962;SDS011;13760;52.588;13.406;2022-08-19T00:03:47;17.13;;;15.13;;
25962;SDS011;13760;52.588;13.406;2022-08-19T00:06:14;18.00;;;15.50;;
25962;SDS011;13760;52.588;13.406;2022-08-19T00:08:40;16.08;;;14.48;;
25962;SDS011;13760;52.588;13.406;2022-08-19T00:11:05;16.70;;;15.20;;
25962;SDS011;13760;52.588;13.406;2022-08-19T00:13:32;16.60;;;14.90;;
25962;SDS011;13760;52.588;13.406;2022-08-19T00:15:59;17.92;;;16.08;;
25962;SDS011;13760;52.588;13.406;2022-08-19T00:18:25;17.85;;;15.48;;
25962;SDS011;13760;52.588;13.406;2022-08-19T00:20:51;19.15;;;17.17;;
25962;SDS011;13760;52.588;13.406;2022-08-19T00:23:17;17.25;;;15.55;;
25962;SDS011;13760;52.588;13.406;2022-08-19T00:25:43;19.35;;;15.98;;
25962;SDS011;13760;52.588;13.406;2022-08-19T00:28:09;17.85;;;16.23;;
25962;SDS011;13760;52.588;13.406;2022-08-19T00:30:35;17.92;;;16.33;;
25962;SDS011;13760;52.588;13.406;2022-08-19T00:33:01;18.02;;;16.05;;
25962;SDS011;13760;52.588;13.406;2022-08-19T00:35:27;17.50;;;15.70;;
25962;SDS011;13760;52.588;13.406;2022-08-19T00:37:57;16.60;;;14.95;;
25962;SDS011;13760;52.588;13.406;2022-08-19T00:40:53;17.70;;;15.55;;
25962;SDS011;13760;52.588;13.406;2022-08-19T00:43:26;15.82;;;14.23;;
25962;SDS011;13760;52.588;13.406;2022-08-19T00:45:53;18.17;;;16.35;;
25962;SDS011;13760;52.588;13.406;2022-08-19T00:48:19;17.88;;;16.08;;
25962;SDS011;13760;52.588;13.406;2022-08-19T00:50:46;18.67;;;16.88;;
25962;SDS011;13760;52.588;13.406;2022-08-19T00:53:15;17.02;;;15.32;;
25962;SDS011;13760;52.588;13.406;2022-08-19T00:55:47;17.83;;;15.95;;
25962;SDS011;13760;52.588;13.406;2022-08-19T00:58:16;16.98;;;15.25;;
25962;SDS011;13760;52.588;13.406;2022-08-19T01:00:44;19.13;;;17.23;;
25962;SDS011;13760;52.588;13.406;2022-08-19T01:03:12;17.52;;;15.95;;
25962;SDS011;13760;52.588;13.406;2022-08-19T01:05:41;17.38;;;15.60;;
25962;SDS011;13760;52.588;13.406;2022-08-19T01:08:08;18.15;;;16.35;;
25962;SDS011;13760;52.588;13.406;2022-08-19T01:10:41;17.13;;;15.63;;
25962;SDS011;13760;52.588;13.406;2022-08-19T01:13:17;18.17;;;16.48;;
25962;SDS011;13760;52.588;13.406;2022-08-19T01:15:47;18.98;;;16.95;;
25962;SDS011;13760;52.588;13.406;2022-08-19T01:18:18;18.08;;;16.17;;
25962;SDS011;13760;52.588;13.406;2022-08-19T01:20:45;19.30;;;17.33;;
25962;SDS011;13760;52.588;13.406;2022-08-19T01:23:12;17.90;;;16.17;;
25962;SDS011;13760;52.588;13.406;2022-08-19T01:25:43;16.73;;;15.15;;
25962;SDS011;13760;52.588;13.406;2022-08-19T01:28:16;17.33;;;15.63;;
25962;SDS011;13760;52.588;13.406;2022-08-19T01:30:46;18.98;;;17.10;;
25962;SDS011;13760;52.588;13.406;2022-08-19T01:33:13;19.08;;;17.17;;
25962;SDS011;13760;52.588;13.406;2022-08-19T01:35:40;19.55;;;17.50;;
25962;SDS011;13760;52.588;13.406;2022-08-19T01:38:07;18.52;;;16.48;;
25962;SDS011;13760;52.588;13.406;2022-08-19T01:40:37;19.48;;;17.58;;
25962;SDS011;13760;52.588;13.406;2022-08-19T01:43:05;18.40;;;16.60;;
25962;SDS011;13760;52.588;13.406;2022-08-19T01:45:39;20.10;;;18.02;;
25962;SDS011;13760;52.588;13.406;2022-08-19T01:48:06;19.33;;;17.33;;
25962;SDS011;13760;52.588;13.406;2022-08-19T01:50:32;19.73;;;17.75;;
25962;SDS011;13760;52.588;13.406;2022-08-19T01:55:46;20.73;;;18.73;;
25962;SDS011;13760;52.588;13.406;2022-08-19T01:58:17;22.90;;;20.55;;
25962;SDS011;13760;52.588;13.406;2022-08-19T02:00:47;23.63;;;21.23;;
25962;SDS011;13760;52.588;13.406;2022-08-19T02:03:13;21.80;;;19.52;;
25962;SDS011;13760;52.588;13.406;2022-08-19T02:05:39;24.67;;;19.35;;
25962;SDS011;13760;52.588;13.406;2022-08-19T02:08:06;23.50;;;19.77;;
25962;SDS011;13760;52.588;13.406;2022-08-19T02:10:32;23.10;;;20.42;;
25962;SDS011;13760;52.588;13.406;2022-08-19T02:12:58;23.75;;;21.08;;
25962;SDS011;13760;52.588;13.406;2022-08-19T02:15:24;39.25;;;24.23;;
25962;SDS011;13760;52.588;13.406;2022-08-19T02:17:50;31.83;;;23.13;;
25962;SDS011;13760;52.588;13.406;2022-08-19T02:20:19;31.80;;;23.33;;
25962;SDS011;13760;52.588;13.406;2022-08-19T02:22:45;26.45;;;22.58;;
25962;SDS011;13760;52.588;13.406;2022-08-19T02:25:12;23.10;;;19.83;;
25962;SDS011;13760;52.588;13.406;2022-08-19T02:27:39;28.00;;;23.00;;
25962;SDS011;13760;52.588;13.406;2022-08-19T02:30:08;24.65;;;21.33;;
25962;SDS011;13760;52.588;13.406;2022-08-19T02:32:36;24.23;;;21.70;;
25962;SDS011;13760;52.588;13.406;2022-08-19T02:35:02;28.88;;;21.92;;
25962;SDS011;13760;52.588;13.406;2022-08-19T02:37:28;27.83;;;22.40;;
25962;SDS011;13760;52.588;13.406;2022-08-19T02:40:12;25.85;;;21.60;;
25962;SDS011;13760;52.588;13.406;2022-08-19T02:42:47;24.05;;;21.55;;
25962;SDS011;13760;52.588;13.406;2022-08-19T02:45:14;24.88;;;21.75;;
25962;SDS011;13760;52.588;13.406;2022-08-19T02:47:40;24.20;;;21.65;;
25962;SDS011;13760;52.588;13.406;2022-08-19T02:50:05;24.60;;;22.20;;
25962;SDS011;13760;52.588;13.406;2022-08-19T02:52:32;26.00;;;23.23;;
25962;SDS011;13760;52.588;13.406;2022-08-19T02:54:58;25.92;;;22.95;;
25962;SDS011;13760;52.588;13.406;2022-08-19T02:57:25;26.85;;;22.70;;
25962;SDS011;13760;52.588;13.406;2022-08-19T02:59:51;27.17;;;24.25;;
25962;SDS011;13760;52.588;13.406;2022-08-19T03:02:17;25.92;;;22.35;;
25962;SDS011;13760;52.588;13.406;2022-08-19T03:04:42;26.40;;;23.60;;
25962;SDS011;13760;52.588;13.406;2022-08-19T03:07:08;27.33;;;24.52;;
25962;SDS011;13760;52.588;13.406;2022-08-19T03:09:36;26.40;;;23.55;;
25962;SDS011;13760;52.588;13.406;2022-08-19T03:12:03;27.38;;;24.45;;
25962;SDS011;13760;52.588;13.406;2022-08-19T03:14:30;28.60;;;24.55;;
25962;SDS011;13760;52.588;13.406;2022-08-19T03:16:57;26.42;;;23.00;;
25962;SDS011;13760;52.588;13.406;2022-08-19T03:19:23;28.25;;;25.17;;
25962;SDS011;13760;52.588;13.406;2022-08-19T03:21:48;27.55;;;24.70;;
25962;SDS011;13760;52.588;13.406;2022-08-19T03:27:07;26.73;;;23.75;;
25962;SDS011;13760;52.588;13.406;2022-08-19T03:29:54;26.75;;;23.95;;
25962;SDS011;13760;52.588;13.406;2022-08-19T03:32:27;26.73;;;23.92;;
25962;SDS011;13760;52.588;13.406;2022-08-19T03:34:53;23.45;;;21.20;;
25962;SDS011;13760;52.588;13.406;2022-08-19T03:37:21;26.23;;;22.08;;
25962;SDS011;13760;52.588;13.406;2022-08-19T03:39:47;24.70;;;22.23;;
25962;SDS011;13760;52.588;13.406;2022-08-19T03:42:13;23.88;;;21.38;;
25962;SDS011;13760;52.588;13.406;2022-08-19T03:44:46;23.70;;;21.10;;
25962;SDS011;13760;52.588;13.406;2022-08-19T03:47:12;24.05;;;21.55;;
25962;SDS011;13760;52.588;13.406;2022-08-19T03:49:41;22.90;;;20.52;;
25962;SDS011;13760;52.588;13.406;2022-08-19T03:52:06;24.17;;;21.80;;
25962;SDS011;13760;52.588;13.406;2022-08-19T03:54:33;25.00;;;22.52;;
25962;SDS011;13760;52.588;13.406;2022-08-19T03:56:59;24.73;;;22.17;;
25962;SDS011;13760;52.588;13.406;2022-08-19T03:59:26;25.30;;;22.88;;
25962;SDS011;13760;52.588;13.406;2022-08-19T04:01:56;23.42;;;21.05;;
25962;SDS011;13760;52.588;13.406;2022-08-19T04:04:24;23.70;;;21.35;;
25962;SDS011;13760;52.588;13.406;2022-08-19T04:06:53;24.63;;;22.02;;
25962;SDS011;13760;52.588;13.406;2022-08-19T04:09:19;24.83;;;21.90;;
25962;SDS011;13760;52.588;13.406;2022-08-19T04:11:46;24.58;;;21.90;;
25962;SDS011;13760;52.588;13.406;2022-08-19T04:14:17;23.98;;;21.65;;
25962;SDS011;13760;52.588;13.406;2022-08-19T04:16:44;25.88;;;23.27;;
25962;SDS011;13760;52.588;13.406;2022-08-19T04:19:14;25.70;;;22.98;;
25962;SDS011;13760;52.588;13.406;2022-08-19T04:21:42;24.00;;;21.63;;
25962;SDS011;13760;52.588;13.406;2022-08-19T04:24:11;24.30;;;22.08;;
25962;SDS011;13760;52.588;13.406;2022-08-19T04:26:37;25.25;;;22.60;;
25962;SDS011;13760;52.588;13.406;2022-08-19T04:29:06;23.55;;;21.10;;
25962;SDS011;13760;52.588;13.406;2022-08-19T04:31:33;26.00;;;23.50;;
25962;SDS011;13760;52.588;13.406;2022-08-19T04:34:00;25.58;;;22.98;;
25962;SDS011;13760;52.588;13.406;2022-08-19T04:36:34;25.30;;;22.85;;
25962;SDS011;13760;52.588;13.406;2022-08-19T04:39:09;25.73;;;23.25;;
25962;SDS011;13760;52.588;13.406;2022-08-19T04:41:39;26.38;;;23.75;;
25962;SDS011;13760;52.588;13.406;2022-08-19T04:44:23;28.58;;;23.80;;
25962;SDS011;13760;52.588;13.406;2022-08-19T04:46:54;26.20;;;23.45;;
25962;SDS011;13760;52.588;13.406;2022-08-19T04:49:21;26.52;;;23.63;;
25962;SDS011;13760;52.588;13.406;2022-08-19T04:51:50;28.27;;;25.48;;
25962;SDS011;13760;52.588;13.406;2022-08-19T04:54:29;26.90;;;24.17;;
25962;SDS011;13760;52.588;13.406;2022-08-19T04:56:54;26.85;;;24.38;;
25962;SDS011;13760;52.588;13.406;2022-08-19T04:59:20;27.02;;;24.42;;
25962;SDS011;13760;52.588;13.406;2022-08-19T05:01:49;28.08;;;25.27;;
25962;SDS011;13760;52.588;13.406;2022-08-19T05:04:17;26.15;;;23.02;;
25962;SDS011;13760;52.588;13.406;2022-08-19T05:06:44;23.85;;;21.55;;
25962;SDS011;13760;52.588;13.406;2022-08-19T05:09:10;23.17;;;21.02;;
25962;SDS011;13760;52.588;13.406;2022-08-19T05:11:36;24.70;;;21.88;;
25962;SDS011;13760;52.588;13.406;2022-08-19T05:14:04;25.98;;;23.10;;
25962;SDS011;13760;52.588;13.406;2022-08-19T05:16:31;25.73;;;22.95;;
25962;SDS011;13760;52.588;13.406;2022-08-19T05:18:57;24.35;;;21.30;;
25962;SDS011;13760;52.588;13.406;2022-08-19T05:21:42;23.70;;;21.17;;
25962;SDS011;13760;52.588;13.406;2022-08-19T05:24:27;25.05;;;22.40;;
25962;SDS011;13760;52.588;13.406;2022-08-19T05:27:34;24.83;;;22.40;;
25962;SDS011;13760;52.588;13.406;2022-08-19T05:30:00;25.92;;;23.30;;
25962;SDS011;13760;52.588;13.406;2022-08-19T05:32:26;25.80;;;23.10;;
25962;SDS011;13760;52.588;13.406;2022-08-19T05:34:52;25.88;;;22.77;;
25962;SDS011;13760;52.588;13.406;2022-08-19T05:43:28;25.23;;;22.83;;
25962;SDS011;13760;52.588;13.406;2022-08-19T05:46:01;23.88;;;21.45;;
25962;SDS011;13760;52.588;13.406;2022-08-19T05:52:37;24.75;;;22.05;;
25962;SDS011;13760;52.588;13.406;2022-08-19T05:58:23;23.15;;;20.88;;
25962;SDS011;13760;52.588;13.406;2022-08-19T06:00:52;21.95;;;19.73;;
25962;SDS011;13760;52.588;13.406;2022-08-19T06:03:30;22.60;;;20.40;;
25962;SDS011;13760;52.588;13.406;2022-08-19T06:06:01;22.30;;;20.10;;
25962;SDS011;13760;52.588;13.406;2022-08-19T06:08:34;22.92;;;20.58;;
25962;SDS011;13760;52.588;13.406;2022-08-19T06:14:38;23.50;;;21.05;;
25962;SDS011;13760;52.588;13.406;2022-08-19T06:17:24;26.80;;;23.92;;
25962;SDS011;13760;52.588;13.406;2022-08-19T06:20:02;25.23;;;22.77;;
25962;SDS011;13760;52.588;13.406;2022-08-19T06:22:29;24.70;;;22.30;;
25962;SDS011;13760;52.588;13.406;2022-08-19T06:24:55;23.90;;;21.40;;
25962;SDS011;13760;52.588;13.406;2022-08-19T06:27:21;24.35;;;22.08;;
25962;SDS011;13760;52.588;13.406;2022-08-19T06:29:50;25.80;;;23.15;;
25962;SDS011;13760;52.588;13.406;2022-08-19T06:32:32;27.42;;;24.83;;
25962;SDS011;13760;52.588;13.406;2022-08-19T06:35:01;25.98;;;22.35;;
25962;SDS011;13760;52.588;13.406;2022-08-19T06:37:33;24.00;;;21.70;;
25962;SDS011;13760;52.588;13.406;2022-08-19T06:46:35;25.83;;;23.17;;
25962;SDS011;13760;52.588;13.406;2022-08-19T06:49:50;33.10;;;24.15;;
25962;SDS011;13760;52.588;13.406;2022-08-19T07:42:42;28.05;;;25.45;;
25962;SDS011;13760;52.588;13.406;2022-08-19T07:45:56;28.35;;;25.40;;
25962;SDS011;13760;52.588;13.406;2022-08-19T07:48:50;27.75;;;24.90;;
25962;SDS011;13760;52.588;13.406;2022-08-19T07:51:23;28.63;;;25.87;;
25962;SDS011;13760;52.588;13.406;2022-08-19T07:54:34;28.67;;;25.83;;
25962;SDS011;13760;52.588;13.406;2022-08-19T07:57:43;27.52;;;24.65;;
25962;SDS011;13760;52.588;13.406;2022-08-19T08:00:25;29.10;;;26.23;;
25962;SDS011;13760;52.588;13.406;2022-08-19T08:03:01;26.52;;;23.90;;
25962;SDS011;13760;52.588;13.406;2022-08-19T08:05:33;27.23;;;24.85;;
25962;SDS011;13760;52.588;13.406;2022-08-19T08:08:27;26.30;;;23.70;;
25962;SDS011;13760;52.588;13.406;2022-08-19T08:11:24;28.77;;;26.15;;
25962;SDS011;13760;52.588;13.406;2022-08-19T08:13:51;26.45;;;23.88;;
25962;SDS011;13760;52.588;13.406;2022-08-19T08:16:17;27.40;;;24.85;;
25962;SDS011;13760;52.588;13.406;2022-08-19T08:18:46;27.98;;;25.42;;
25962;SDS011;13760;52.588;13.406;2022-08-19T08:21:36;27.00;;;24.42;;
25962;SDS011;13760;52.588;13.406;2022-08-19T08:24:42;28.10;;;25.48;;
25962;SDS011;13760;52.588;13.406;2022-08-19T08:30:19;29.15;;;25.80;;
25962;SDS011;13760;52.588;13.406;2022-08-19T08:32:52;25.67;;;23.08;;
25962;SDS011;13760;52.588;13.406;2022-08-19T08:35:24;26.67;;;24.05;;
25962;SDS011;13760;52.588;13.406;2022-08-19T08:38:21;26.77;;;23.90;;
25962;SDS011;13760;52.588;13.406;2022-08-19T08:41:20;27.02;;;24.63;;
25962;SDS011;13760;52.588;13.406;2022-08-19T08:47:37;27.98;;;25.33;;
25962;SDS011;13760;52.588;13.406;2022-08-19T08:53:01;23.45;;;21.08;;
25962;SDS011;13760;52.588;13.406;2022-08-19T08:55:34;26.35;;;23.83;;
25962;SDS011;13760;52.588;13.406;2022-08-19T08:58:03;24.83;;;22.65;;
25962;SDS011;13760;52.588;13.406;2022-08-19T09:00:34;24.95;;;22.48;;
25962;SDS011;13760;52.588;13.406;2022-08-19T09:03:03;24.50;;;22.30;;
25962;SDS011;13760;52.588;13.406;2022-08-19T09:11:38;22.15;;;20.15;;
25962;SDS011;13760;52.588;13.406;2022-08-19T09:16:53;21.30;;;19.35;;
25962;SDS011;13760;52.588;13.406;2022-08-19T09:19:21;22.13;;;20.02;;
25962;SDS011;13760;52.588;13.406;2022-08-19T09:21:49;21.42;;;19.23;;
25962;SDS011;13760;52.588;13.406;2022-08-19T09:24:25;21.50;;;19.27;;
25962;SDS011;13760;52.588;13.406;2022-08-19T09:26:51;19.23;;;17.52;;
25962;SDS011;13760;52.588;13.406;2022-08-19T09:29:17;19.50;;;17.60;;
25962;SDS011;13760;52.588;13.406;2022-08-19T09:31:45;18.40;;;16.67;;
25962;SDS011;13760;52.588;13.406;2022-08-19T09:34:14;19.60;;;17.73;;
25962;SDS011;13760;52.588;13.406;2022-08-19T09:36:41;20.13;;;18.20;;
25962;SDS011;13760;52.588;13.406;2022-08-19T09:39:07;21.17;;;17.08;;
25962;SDS011;13760;52.588;13.406;2022-08-19T09:41:34;18.30;;;16.63;;
25962;SDS011;13760;52.588;13.406;2022-08-19T09:44:01;18.75;;;16.95;;
25962;SDS011;13760;52.588;13.406;2022-08-19T09:46:34;19.02;;;17.33;;
25962;SDS011;13760;52.588;13.406;2022-08-19T09:49:01;19.27;;;17.33;;
25962;SDS011;13760;52.588;13.406;2022-08-19T09:51:40;19.17;;;17.30;;
25962;SDS011;13760;52.588;13.406;2022-08-19T09:54:12;18.00;;;16.30;;
25962;SDS011;13760;52.588;13.406;2022-08-19T09:56:51;18.52;;;16.75;;
25962;SDS011;13760;52.588;13.406;2022-08-19T09:59:28;18.67;;;15.90;;
25962;SDS011;13760;52.588;13.406;2022-08-19T10:02:04;17.40;;;15.88;;
25962;SDS011;13760;52.588;13.406;2022-08-19T10:04:46;17.30;;;15.70;;
25962;SDS011;13760;52.588;13.406;2022-08-19T10:30:02;19.25;;;17.27;;
25962;SDS011;13760;52.588;13.406;2022-08-19T10:32:40;17.08;;;15.50;;
25962;SDS011;13760;52.588;13.406;2022-08-19T10:35:09;18.08;;;16.15;;
25962;SDS011;13760;52.588;13.406;2022-08-19T10:37:44;18.27;;;16.42;;
25962;SDS011;13760;52.588;13.406;2022-08-19T10:43:55;17.40;;;15.65;;
25962;SDS011;13760;52.588;13.406;2022-08-19T10:46:48;17.65;;;15.40;;
25962;SDS011;13760;52.588;13.406;2022-08-19T10:49:24;17.52;;;15.52;;
25962;SDS011;13760;52.588;13.406;2022-08-19T11:04:08;19.08;;;15.40;;
25962;SDS011;13760;52.588;13.406;2022-08-19T11:13:15;15.98;;;14.27;;
25962;SDS011;13760;52.588;13.406;2022-08-19T11:22:13;16.42;;;13.07;;
25962;SDS011;13760;52.588;13.406;2022-08-19T11:24:57;16.33;;;14.18;;
25962;SDS011;13760;52.588;13.406;2022-08-19T11:34:27;15.05;;;13.55;;
25962;SDS011;13760;52.588;13.406;2022-08-19T11:37:23;15.68;;;14.05;;
25962;SDS011;13760;52.588;13.406;2022-08-19T11:40:23;14.77;;;13.35;;
25962;SDS011;13760;52.588;13.406;2022-08-19T11:43:20;20.52;;;14.10;;
25962;SDS011;13760;52.588;13.406;2022-08-19T11:46:25;14.38;;;12.98;;
25962;SDS011;13760;52.588;13.406;2022-08-19T11:49:28;16.90;;;12.50;;
25962;SDS011;13760;52.588;13.406;2022-08-19T11:52:12;14.13;;;12.68;;
25962;SDS011;13760;52.588;13.406;2022-08-19T11:54:51;13.75;;;12.35;;
25962;SDS011;13760;52.588;13.406;2022-08-19T11:57:34;13.75;;;12.13;;
25962;SDS011;13760;52.588;13.406;2022-08-19T12:00:06;13.35;;;12.15;;
25962;SDS011;13760;52.588;13.406;2022-08-19T12:06:05;13.45;;;12.05;;
25962;SDS011;13760;52.588;13.406;2022-08-19T12:08:51;13.30;;;11.10;;
25962;SDS011;13760;52.588;13.406;2022-08-19T12:11:19;12.60;;;11.40;;
25962;SDS011;13760;52.588;13.406;2022-08-19T12:13:49;11.85;;;10.77;;
25962;SDS011;13760;52.588;13.406;2022-08-19T12:16:17;13.13;;;11.93;;
25962;SDS011;13760;52.588;13.406;2022-08-19T12:18:44;11.88;;;10.70;;
25962;SDS011;13760;52.588;13.406;2022-08-19T12:21:25;12.82;;;10.77;;
25962;SDS011;13760;52.588;13.406;2022-08-19T12:24:00;11.40;;;10.23;;
25962;SDS011;13760;52.588;13.406;2022-08-19T12:26:28;15.25;;;10.00;;
25962;SDS011;13760;52.588;13.406;2022-08-19T12:32:26;10.88;;;9.32;;
25962;SDS011;13760;52.588;13.406;2022-08-19T12:35:04;12.57;;;9.30;;
25962;SDS011;13760;52.588;13.406;2022-08-19T12:37:59;10.18;;;8.82;;
25962;SDS011;13760;52.588;13.406;2022-08-19T12:40:37;10.30;;;9.40;;
25962;SDS011;13760;52.588;13.406;2022-08-19T12:43:16;10.32;;;9.25;;
25962;SDS011;13760;52.588;13.406;2022-08-19T12:46:07;10.48;;;9.48;;
25962;SDS011;13760;52.588;13.406;2022-08-19T12:48:43;10.88;;;9.77;;
25962;SDS011;13760;52.588;13.406;2022-08-19T12:51:44;11.43;;;10.32;;
25962;SDS011;13760;52.588;13.406;2022-08-19T12:54:23;11.18;;;9.98;;
25962;SDS011;13760;52.588;13.406;2022-08-19T12:57:04;12.00;;;10.48;;
25962;SDS011;13760;52.588;13.406;2022-08-19T12:59:34;10.95;;;9.85;;
25962;SDS011;13760;52.588;13.406;2022-08-19T13:02:01;11.98;;;10.77;;
25962;SDS011;13760;52.588;13.406;2022-08-19T13:04:32;11.65;;;10.55;;
25962;SDS011;13760;52.588;13.406;2022-08-19T13:09:27;11.40;;;10.10;;
25962;SDS011;13760;52.588;13.406;2022-08-19T13:11:54;11.38;;;10.25;;
25962;SDS011;13760;52.588;13.406;2022-08-19T13:14:27;12.82;;;10.10;;
25962;SDS011;13760;52.588;13.406;2022-08-19T13:17:00;11.45;;;10.35;;
25962;SDS011;13760;52.588;13.406;2022-08-19T13:19:40;11.30;;;10.20;;
25962;SDS011;13760;52.588;13.406;2022-08-19T13:22:30;10.60;;;9.70;;
25962;SDS011;13760;52.588;13.406;2022-08-19T13:24:56;11.88;;;10.70;;
25962;SDS011;13760;52.588;13.406;2022-08-19T13:27:39;11.73;;;10.73;;
25962;SDS011;13760;52.588;13.406;2022-08-19T13:30:23;11.70;;;10.60;;
25962;SDS011;13760;52.588;13.406;2022-08-19T13:36:35;11.27;;;10.23;;
25962;SDS011;13760;52.588;13.406;2022-08-19T13:39:21;11.63;;;10.25;;
25962;SDS011;13760;52.588;13.406;2022-08-19T13:41:49;11.43;;;10.43;;
25962;SDS011;13760;52.588;13.406;2022-08-19T13:44:23;15.43;;;11.20;;
25962;SDS011;13760;52.588;13.406;2022-08-19T13:46:52;12.20;;;10.43;;
25962;SDS011;13760;52.588;13.406;2022-08-19T13:49:20;12.63;;;11.35;;
25962;SDS011;13760;52.588;13.406;2022-08-19T13:51:48;14.27;;;10.65;;
25962;SDS011;13760;52.588;13.406;2022-08-19T13:54:15;12.30;;;10.98;;
25962;SDS011;13760;52.588;13.406;2022-08-19T13:56:48;15.13;;;11.60;;
25962;SDS011;13760;52.588;13.406;2022-08-19T13:59:23;11.95;;;10.85;;
25962;SDS011;13760;52.588;13.406;2022-08-19T14:04:45;11.90;;;10.75;;
25962;SDS011;13760;52.588;13.406;2022-08-19T14:10:14;12.95;;;10.93;;
25962;SDS011;13760;52.588;13.406;2022-08-19T14:13:06;13.48;;;10.52;;
25962;SDS011;13760;52.588;13.406;2022-08-19T14:15:33;11.38;;;10.38;;
25962;SDS011;13760;52.588;13.406;2022-08-19T14:18:00;11.95;;;10.75;;
25962;SDS011;13760;52.588;13.406;2022-08-19T14:20:30;12.37;;;11.13;;
25962;SDS011;13760;52.588;13.406;2022-08-19T14:22:59;12.30;;;11.02;;
25962;SDS011;13760;52.588;13.406;2022-08-19T14:25:27;12.35;;;10.27;;
25962;SDS011;13760;52.588;13.406;2022-08-19T14:28:02;11.50;;;10.30;;
25962;SDS011;13760;52.588;13.406;2022-08-19T14:30:37;11.60;;;10.45;;
25962;SDS011;13760;52.588;13.406;2022-08-19T14:33:06;11.13;;;10.07;;
25962;SDS011;13760;52.588;13.406;2022-08-19T14:35:40;10.82;;;9.82;;
25962;SDS011;13760;52.588;13.406;2022-08-19T14:38:14;10.90;;;9.77;;
25962;SDS011;13760;52.588;13.406;2022-08-19T14:40:43;11.07;;;9.88;;
25962;SDS011;13760;52.588;13.406;2022-08-19T14:43:10;10.75;;;9.65;;
25962;SDS011;13760;52.588;13.406;2022-08-19T14:45:37;11.18;;;10.18;;
25962;SDS011;13760;52.588;13.406;2022-08-19T14:48:07;11.43;;;10.23;;
25962;SDS011;13760;52.588;13.406;2022-08-19T14:50:33;10.32;;;9.32;;
25962;SDS011;13760;52.588;13.406;2022-08-19T14:53:06;10.50;;;9.45;;
25962;SDS011;13760;52.588;13.406;2022-08-19T14:55:33;10.35;;;9.35;;
25962;SDS011;13760;52.588;13.406;2022-08-19T14:57:59;10.40;;;9.50;;
25962;SDS011;13760;52.588;13.406;2022-08-19T15:00:25;9.77;;;8.88;;
25962;SDS011;13760;52.588;13.406;2022-08-19T15:02:51;10.82;;;9.82;;
25962;SDS011;13760;52.588;13.406;2022-08-19T15:05:20;10.35;;;9.40;;
25962;SDS011;13760;52.588;13.406;2022-08-19T15:07:46;10.98;;;9.82;;
25962;SDS011;13760;52.588;13.406;2022-08-19T15:10:13;10.65;;;9.48;;
25962;SDS011;13760;52.588;13.406;2022-08-19T15:12:40;10.35;;;9.35;;
25962;SDS011;13760;52.588;13.406;2022-08-19T15:15:08;9.80;;;8.90;;
25962;SDS011;13760;52.588;13.406;2022-08-19T15:20:09;9.93;;;8.98;;
25962;SDS011;13760;52.588;13.406;2022-08-19T15:22:40;10.63;;;9.55;;
25962;SDS011;13760;52.588;13.406;2022-08-19T15:25:07;10.73;;;8.70;;
25962;SDS011;13760;52.588;13.406;2022-08-19T15:27:35;9.45;;;8.48;;
25962;SDS011;13760;52.588;13.406;2022-08-19T15:30:00;10.20;;;9.18;;
25962;SDS011;13760;52.588;13.406;2022-08-19T15:32:26;9.85;;;8.45;;
25962;SDS011;13760;52.588;13.406;2022-08-19T15:34:52;9.98;;;9.02;;
25962;SDS011;13760;52.588;13.406;2022-08-19T15:37:19;10.48;;;9.48;;
25962;SDS011;13760;52.588;13.406;2022-08-19T15:39:48;9.75;;;8.95;;
25962;SDS011;13760;52.588;13.406;2022-08-19T15:42:14;9.80;;;8.90;;
25962;SDS011;13760;52.588;13.406;2022-08-19T15:44:40;10.07;;;9.18;;
25962;SDS011;13760;52.588;13.406;2022-08-19T15:47:05;12.60;;;9.18;;
25962;SDS011;13760;52.588;13.406;2022-08-19T15:49:32;9.88;;;8.95;;
25962;SDS011;13760;52.588;13.406;2022-08-19T15:52:05;10.52;;;9.43;;
25962;SDS011;13760;52.588;13.406;2022-08-19T15:54:31;11.13;;;10.02;;
25962;SDS011;13760;52.588;13.406;2022-08-19T15:56:57;10.18;;;9.32;;
25962;SDS011;13760;52.588;13.406;2022-08-19T15:59:59;9.88;;;8.98;;
25962;SDS011;13760;52.588;13.406;2022-08-19T16:02:43;9.98;;;9.07;;
25962;SDS011;13760;52.588;13.406;2022-08-19T16:05:27;9.90;;;9.00;;
25962;SDS011;13760;52.588;13.406;2022-08-19T16:08:27;12.38;;;9.40;;
25962;SDS011;13760;52.588;13.406;2022-08-19T16:11:02;10.43;;;9.40;;
25962;SDS011;13760;52.588;13.406;2022-08-19T16:13:31;11.30;;;10.23;;
25962;SDS011;13760;52.588;13.406;2022-08-19T16:16:00;11.27;;;10.27;;
25962;SDS011;13760;52.588;13.406;2022-08-19T16:18:29;11.02;;;9.73;;
25962;SDS011;13760;52.588;13.406;2022-08-19T16:20:56;10.90;;;9.80;;
25962;SDS011;13760;52.588;13.406;2022-08-19T16:23:22;11.80;;;10.80;;
25962;SDS011;13760;52.588;13.406;2022-08-19T16:25:47;11.13;;;10.02;;
25962;SDS011;13760;52.588;13.406;2022-08-19T16:28:13;10.55;;;9.63;;
25962;SDS011;13760;52.588;13.406;2022-08-19T16:30:39;11.35;;;10.38;;
25962;SDS011;13760;52.588;13.406;2022-08-19T16:33:07;10.80;;;9.80;;
25962;SDS011;13760;52.588;13.406;2022-08-19T16:35:34;10.60;;;9.60;;
25962;SDS011;13760;52.588;13.406;2022-08-19T16:37:59;10.57;;;9.63;;
25962;SDS011;13760;52.588;13.406;2022-08-19T16:40:26;11.52;;;10.40;;
25962;SDS011;13760;52.588;13.406;2022-08-19T16:42:52;11.50;;;10.40;;
25962;SDS011;13760;52.588;13.406;2022-08-19T16:45:17;11.55;;;10.57;;
25962;SDS011;13760;52.588;13.406;2022-08-19T16:47:44;11.35;;;10.25;;
25962;SDS011;13760;52.588;13.406;2022-08-19T16:50:10;10.80;;;9.70;;
25962;SDS011;13760;52.588;13.406;2022-08-19T16:52:39;10.70;;;9.68;;
25962;SDS011;13760;52.588;13.406;2022-08-19T16:55:04;10.38;;;9.48;;
25962;SDS011;13760;52.588;13.406;2022-08-19T16:57:32;11.05;;;9.95;;
25962;SDS011;13760;52.588;13.406;2022-08-19T16:59:58;11.25;;;10.20;;
25962;SDS011;13760;52.588;13.406;2022-08-19T17:02:26;11.60;;;10.60;;
25962;SDS011;13760;52.588;13.406;2022-08-19T17:04:51;10.93;;;9.82;;
25962;SDS011;13760;52.588;13.406;2022-08-19T17:07:17;12.20;;;10.43;;
25962;SDS011;13760;52.588;13.406;2022-08-19T17:09:43;11.30;;;10.30;;
25962;SDS011;13760;52.588;13.406;2022-08-19T17:12:09;11.43;;;10.35;;
25962;SDS011;13760;52.588;13.406;2022-08-19T17:14:36;11.25;;;10.25;;
25962;SDS011;13760;52.588;13.406;2022-08-19T17:17:02;11.68;;;10.68;;
25962;SDS011;13760;52.588;13.406;2022-08-19T17:19:36;11.40;;;10.32;;
25962;SDS011;13760;52.588;13.406;2022-08-19T17:22:05;12.10;;;11.00;;
25962;SDS011;13760;52.588;13.406;2022-08-19T17:24:31;11.63;;;10.52;;
25962;SDS011;13760;52.588;13.406;2022-08-19T17:26:56;12.45;;;11.23;;
25962;SDS011;13760;52.588;13.406;2022-08-19T17:29:22;12.35;;;11.15;;
25962;SDS011;13760;52.588;13.406;2022-08-19T17:31:48;12.45;;;11.07;;
25962;SDS011;13760;52.588;13.406;2022-08-19T17:34:13;12.10;;;10.85;;
25962;SDS011;13760;52.588;13.406;2022-08-19T17:36:41;11.32;;;10.30;;